createdAt,value
2023-03-07T00:04:24.960Z,6.07
2023-03-07T00:09:31.940Z,6.37
2023-03-07T00:14:38.814Z,6.00
2023-03-07T00:19:46.063Z,5.60
2023-03-07T00:24:53.004Z,5.60
2023-03-07T00:30:00.122Z,5.07
2023-03-07T00:35:07.821Z,4.90
2023-03-07T00:40:15.877Z,4.70
2023-03-07T00:45:22.869Z,5.30
2023-03-07T00:50:29.842Z,4.63
2023-03-07T00:55:36.926Z,5.30
2023-03-07T01:00:43.975Z,4.00
2023-03-07T01:05:51.821Z,4.17
2023-03-07T01:11:01.071Z,3.80
2023-03-07T01:16:11.974Z,3.73
2023-03-07T01:21:23.106Z,3.60
2023-03-07T01:26:32.519Z,3.37
2023-03-07T01:31:39.618Z,4.40
2023-03-07T01:36:46.837Z,4.90
2023-03-07T01:41:53.720Z,4.60
2023-03-07T01:47:02.436Z,4.13
2023-03-07T01:52:13.843Z,4.10
2023-03-07T01:57:24.932Z,4.37
2023-03-07T02:02:32.011Z,4.33
2023-03-07T02:07:42.006Z,3.97
2023-03-07T02:12:50.160Z,4.07
2023-03-07T02:17:59.814Z,3.47
2023-03-07T02:23:09.051Z,4.27
2023-03-07T02:28:19.466Z,4.57
2023-03-07T02:33:26.526Z,3.93
2023-03-07T02:38:38.290Z,4.30
2023-03-07T02:43:45.665Z,4.20
2023-03-07T02:48:52.596Z,3.93
2023-03-07T02:53:59.956Z,4.27
2023-03-07T02:59:07.434Z,3.90
2023-03-07T03:04:15.023Z,3.60
2023-03-07T03:09:22.686Z,3.40
2023-03-07T03:14:29.820Z,3.47
2023-03-07T03:19:36.929Z,3.37
2023-03-07T03:24:44.454Z,3.57
2023-03-07T03:29:55.332Z,3.60
2023-03-07T03:35:02.481Z,3.33
2023-03-07T03:40:11.920Z,3.53
2023-03-07T03:45:19.689Z,3.80
2023-03-07T03:50:26.676Z,3.57
2023-03-07T03:55:33.985Z,3.50
2023-03-07T04:00:40.872Z,3.60
2023-03-07T04:05:47.741Z,3.10
2023-03-07T04:10:55.077Z,3.30
2023-03-07T04:16:02.548Z,3.33
2023-03-07T04:21:11.418Z,2.73
2023-03-07T04:26:19.065Z,3.00
2023-03-07T04:31:28.582Z,3.10
2023-03-07T04:36:37.257Z,3.33
2023-03-07T04:41:45.817Z,3.07
2023-03-07T04:46:54.535Z,3.20
2023-03-07T04:52:01.952Z,3.30
2023-03-07T04:57:09.304Z,3.50
2023-03-07T05:02:16.761Z,3.70
2023-03-07T05:07:23.771Z,3.07
2023-03-07T05:12:30.992Z,3.70
2023-03-07T05:17:38.856Z,3.40
2023-03-07T05:22:46.033Z,2.73
2023-03-07T05:27:53.312Z,2.87
2023-03-07T05:33:00.321Z,2.70
2023-03-07T05:38:08.565Z,2.80
2023-03-07T05:43:15.862Z,2.83
2023-03-07T05:48:22.843Z,2.90
2023-03-07T05:53:30.275Z,2.70
2023-03-07T05:58:37.882Z,2.40
2023-03-07T06:03:45.402Z,1.97
2023-03-07T06:08:53.204Z,2.10
2023-03-07T06:14:00.600Z,2.37
2023-03-07T06:19:08.656Z,7.00
2023-03-07T06:24:16.649Z,2.93
2023-03-07T06:29:24.050Z,2.80
2023-03-07T06:34:31.806Z,1.90
2023-03-07T06:39:39.085Z,1.60
2023-03-07T06:44:46.377Z,1.97
2023-03-07T06:49:53.898Z,1.70
2023-03-07T06:55:01.606Z,1.80
2023-03-07T07:00:10.382Z,1.80
2023-03-07T07:05:17.362Z,1.70
2023-03-07T07:10:25.177Z,2.23
2023-03-07T07:15:33.806Z,1.90
2023-03-07T07:20:41.013Z,2.50
2023-03-07T07:25:48.722Z,2.00
2023-03-07T07:30:56.032Z,2.00
2023-03-07T07:36:03.811Z,2.00
2023-03-07T07:41:12.332Z,1.53
2023-03-07T07:46:20.369Z,1.10
2023-03-07T07:51:27.875Z,0.90
2023-03-07T07:56:35.426Z,1.30
2023-03-07T08:01:42.207Z,1.20
2023-03-07T08:06:49.138Z,1.07
2023-03-07T08:11:56.171Z,1.13
2023-03-07T08:17:03.829Z,0.87
2023-03-07T08:22:10.628Z,1.17
2023-03-07T08:27:17.411Z,0.80
2023-03-07T08:32:24.477Z,0.70
2023-03-07T08:37:31.418Z,0.60
2023-03-07T08:42:38.331Z,0.70
2023-03-07T08:47:45.460Z,0.90
2023-03-07T08:52:52.772Z,0.87
2023-03-07T08:57:59.750Z,0.93
2023-03-07T09:03:07.403Z,0.70
2023-03-07T09:08:14.723Z,0.70
2023-03-07T09:13:22.173Z,0.80
2023-03-07T09:18:31.729Z,1.00
2023-03-07T09:23:39.918Z,0.70
2023-03-07T09:28:47.231Z,0.90
2023-03-07T09:33:54.624Z,0.80
2023-03-07T09:39:01.580Z,0.97
2023-03-07T09:44:09.600Z,0.90
2023-03-07T09:49:20.465Z,1.00
2023-03-07T09:54:30.825Z,1.00
2023-03-07T09:59:40.856Z,0.87
2023-03-07T10:04:53.042Z,0.87
2023-03-07T10:10:02.986Z,0.80
2023-03-07T10:15:13.198Z,1.00
2023-03-07T10:20:23.509Z,1.30
2023-03-07T10:25:36.675Z,1.10
2023-03-07T10:30:44.478Z,0.97
2023-03-07T10:35:55.958Z,1.20
2023-03-07T10:41:07.286Z,0.90
2023-03-07T10:46:28.579Z,0.90
2023-03-07T10:51:50.953Z,0.70
2023-03-07T10:57:05.245Z,0.80
2023-03-07T11:02:18.592Z,0.80
2023-03-07T11:07:31.654Z,1.13
2023-03-07T11:12:42.776Z,1.10
2023-03-07T11:17:50.846Z,1.00
2023-03-07T11:23:19.657Z,1.00
2023-03-07T11:28:25.788Z,1.17
2023-03-07T11:33:35.544Z,1.00
2023-03-07T11:38:48.358Z,1.20
2023-03-07T11:43:58.878Z,1.40
2023-03-07T11:49:07.904Z,1.60
2023-03-07T11:54:14.833Z,1.80
2023-03-07T11:59:39.253Z,2.43
2023-03-07T12:04:50.817Z,2.47
2023-03-07T12:10:00.685Z,2.27
2023-03-07T12:15:16.971Z,2.30
2023-03-07T12:20:41.564Z,2.10
2023-03-07T12:25:54.182Z,1.70
2023-03-07T12:31:11.795Z,1.40
2023-03-07T12:36:37.026Z,1.50
2023-03-07T12:41:56.142Z,1.70
2023-03-07T12:47:06.282Z,1.47
2023-03-07T12:52:20.607Z,1.70
2023-03-07T12:57:54.835Z,1.60
2023-03-07T13:03:09.851Z,1.80
2023-03-07T13:08:23.848Z,1.90
2023-03-07T13:13:33.810Z,1.70
2023-03-07T13:18:44.217Z,1.90
2023-03-07T13:23:59.202Z,2.00
2023-03-07T13:29:10.939Z,2.20
2023-03-07T13:34:22.434Z,1.90
2023-03-07T13:39:32.502Z,2.27
2023-03-07T13:44:44.383Z,1.80
2023-03-07T13:49:54.440Z,2.00
2023-03-07T13:55:05.875Z,1.70
2023-03-07T14:00:18.896Z,1.90
2023-03-07T14:05:26.849Z,1.93
2023-03-07T14:10:35.293Z,1.60
2023-03-07T14:15:46.678Z,1.80
2023-03-07T14:21:13.927Z,1.60
2023-03-07T14:26:27.490Z,1.40
2023-03-07T14:31:37.983Z,1.30
2023-03-07T14:37:04.245Z,1.40
2023-03-07T14:42:22.136Z,1.50
2023-03-07T14:47:33.947Z,1.40
2023-03-07T14:52:49.713Z,1.20
2023-03-07T14:58:02.199Z,1.30
2023-03-07T15:03:14.686Z,1.40
2023-03-07T15:08:26.201Z,1.40
2023-03-07T15:13:36.109Z,1.60
2023-03-07T15:18:46.221Z,1.73
2023-03-07T15:23:57.269Z,1.93
2023-03-07T15:29:09.083Z,1.73
2023-03-07T15:34:19.804Z,2.00
2023-03-07T15:39:33.243Z,1.70
2023-03-07T15:44:40.298Z,1.83
2023-03-07T15:49:50.534Z,1.90
2023-03-07T15:54:59.946Z,2.13
2023-03-07T16:00:12.156Z,1.80
2023-03-07T16:05:22.319Z,1.67
2023-03-07T16:10:45.443Z,1.40
2023-03-07T16:16:14.064Z,1.30
2023-03-07T16:21:29.390Z,1.33
2023-03-07T16:26:53.388Z,1.80
2023-03-07T16:32:18.408Z,1.70
2023-03-07T16:37:26.156Z,1.73
2023-03-07T16:42:33.051Z,1.10
2023-03-07T16:47:39.964Z,1.20
2023-03-07T16:52:47.650Z,1.10
2023-03-07T16:57:57.727Z,1.10
2023-03-07T17:03:04.692Z,1.00
2023-03-07T17:08:12.896Z,1.00
2023-03-07T17:13:20.293Z,1.03
2023-03-07T17:18:29.174Z,0.90
2023-03-07T17:23:50.536Z,0.70
2023-03-07T17:29:04.316Z,0.70
2023-03-07T17:34:29.602Z,0.70
2023-03-07T17:39:45.934Z,0.80
2023-03-07T17:44:59.474Z,0.77
2023-03-07T17:50:18.210Z,0.40
2023-03-07T17:55:32.113Z,0.40
2023-03-07T18:00:46.169Z,0.30
2023-03-07T18:05:57.725Z,0.30
2023-03-07T18:11:13.960Z,0.50
2023-03-07T18:16:28.928Z,0.33
2023-03-07T18:21:40.958Z,0.50
2023-03-07T18:26:56.618Z,0.40
2023-03-07T18:32:14.110Z,0.50
2023-03-07T18:37:30.430Z,0.70
2023-03-07T18:42:41.094Z,0.60
2023-03-07T18:47:54.344Z,0.80
2023-03-07T18:53:09.024Z,0.80
2023-03-07T18:58:34.496Z,0.80
2023-03-07T19:03:54.899Z,0.77
2023-03-07T19:09:08.571Z,0.80
2023-03-07T19:14:31.755Z,0.87
2023-03-07T19:19:53.576Z,0.83
2023-03-07T19:25:16.113Z,0.77
2023-03-07T19:30:32.714Z,0.73
2023-03-07T19:36:02.193Z,0.93
2023-03-07T19:41:23.037Z,0.80
2023-03-07T19:46:30.476Z,13.83
2023-03-07T19:51:38.911Z,3.30
2023-03-07T19:56:46.343Z,3.83
2023-03-07T20:02:04.007Z,1.90
2023-03-07T20:07:32.671Z,2.60
2023-03-07T20:12:56.342Z,1.87
2023-03-07T20:18:27.288Z,1.73
2023-03-07T20:23:55.723Z,1.40
2023-03-07T20:29:22.870Z,1.57
2023-03-07T20:34:44.912Z,1.30
2023-03-07T20:40:37.447Z,1.20
2023-03-07T20:45:46.024Z,0.90
2023-03-07T20:51:22.728Z,1.53
2023-03-07T20:56:51.628Z,2.00
2023-03-07T21:02:19.987Z,1.40
2023-03-07T21:07:26.733Z,1.37
2023-03-07T21:12:46.860Z,1.30
2023-03-07T21:18:08.326Z,1.30
2023-03-07T21:23:25.772Z,2.50
2023-03-07T21:28:54.386Z,5.20
2023-03-07T21:34:17.743Z,1.50
2023-03-07T21:39:33.510Z,3.03
2023-03-07T21:44:51.684Z,2.23
2023-03-07T21:50:12.956Z,5.00
2023-03-07T21:55:32.219Z,1.73
2023-03-07T22:00:59.059Z,5.17
2023-03-07T22:06:20.262Z,0.90
2023-03-07T22:11:36.880Z,1.30
2023-03-07T22:16:49.865Z,1.00
2023-03-07T22:22:03.486Z,1.10
2023-03-07T22:27:21.888Z,3.20
2023-03-07T22:32:34.670Z,1.90
2023-03-07T22:37:45.467Z,0.87
2023-03-07T22:43:29.372Z,1.40
2023-03-07T22:48:33.435Z,1.20
2023-03-07T22:53:44.830Z,1.00
2023-03-07T22:58:58.713Z,1.30
2023-03-07T23:04:11.718Z,1.27
2023-03-07T23:09:22.906Z,1.30
2023-03-07T23:14:34.309Z,1.53
2023-03-07T23:19:45.095Z,1.27
2023-03-07T23:24:59.785Z,3.60
2023-03-07T23:30:09.837Z,2.13
2023-03-07T23:35:22.923Z,1.63
2023-03-07T23:40:33.792Z,1.57
2023-03-07T23:45:46.397Z,1.53
2023-03-07T23:50:58.585Z,1.20
2023-03-07T23:56:11.847Z,1.33
